createdAt,value
2019-05-07T00:01:15.873Z,10.60
2019-05-07T00:03:49.584Z,10.05
2019-05-07T00:06:22.905Z,10.88
2019-05-07T00:09:03.065Z,12.28
2019-05-07T00:11:33.215Z,13.55
2019-05-07T00:14:04.248Z,14.53
2019-05-07T00:16:42.190Z,14.25
2019-05-07T00:19:14.867Z,14.07
2019-05-07T00:21:46.750Z,14.25
2019-05-07T00:24:17.801Z,15.08
2019-05-07T00:26:53.195Z,15.05
2019-05-07T00:29:24.383Z,13.25
2019-05-07T00:31:58.675Z,13.48
2019-05-07T00:34:32.815Z,13.40
2019-05-07T00:37:06.988Z,13.40
2019-05-07T00:39:39.383Z,13.72
2019-05-07T00:42:12.666Z,12.98
2019-05-07T00:44:45.680Z,14.30
2019-05-07T00:47:18.670Z,12.65
2019-05-07T00:49:49.404Z,13.50
2019-05-07T00:52:22.566Z,13.55
2019-05-07T00:54:54.217Z,15.90
2019-05-07T00:57:29.132Z,15.65
2019-05-07T01:00:02.155Z,13.28
2019-05-07T01:02:33.307Z,13.13
2019-05-07T01:05:12.331Z,13.70
2019-05-07T01:07:43.238Z,14.20
2019-05-07T01:10:22.124Z,14.10
2019-05-07T01:12:53.168Z,14.83
2019-05-07T01:15:31.093Z,14.45
2019-05-07T01:17:59.326Z,15.23
2019-05-07T01:20:32.928Z,14.40
2019-05-07T01:23:04.288Z,14.58
2019-05-07T01:25:35.360Z,14.68
2019-05-07T01:28:08.539Z,16.15
2019-05-07T01:30:39.317Z,15.72
2019-05-07T01:33:12.251Z,15.35
2019-05-07T01:35:43.346Z,15.60
2019-05-07T01:38:16.016Z,15.28
2019-05-07T01:40:47.049Z,15.05
2019-05-07T01:43:18.262Z,14.50
2019-05-07T01:45:52.891Z,15.43
2019-05-07T01:48:23.476Z,15.65
2019-05-07T01:50:54.609Z,16.17
2019-05-07T01:53:26.559Z,16.82
2019-05-07T01:56:06.986Z,15.68
2019-05-07T01:58:43.893Z,17.10
2019-05-07T02:01:18.755Z,16.87
2019-05-07T02:03:52.667Z,16.75
2019-05-07T02:06:24.285Z,15.95
2019-05-07T02:08:58.715Z,18.87
2019-05-07T02:11:32.676Z,17.07
2019-05-07T02:14:05.038Z,17.77
2019-05-07T02:16:38.559Z,17.27
2019-05-07T02:19:12.624Z,17.30
2019-05-07T02:21:43.793Z,17.73
2019-05-07T02:24:15.798Z,18.23
2019-05-07T02:26:46.955Z,16.40
2019-05-07T02:29:18.416Z,17.55
2019-05-07T02:31:53.102Z,16.82
2019-05-07T02:34:23.633Z,18.98
2019-05-07T02:36:56.078Z,18.35
2019-05-07T02:39:33.258Z,17.77
2019-05-07T02:42:04.356Z,20.25
2019-05-07T02:44:39.575Z,19.20
2019-05-07T02:47:14.902Z,19.40
2019-05-07T02:49:53.565Z,20.95
2019-05-07T02:52:28.028Z,19.17
2019-05-07T02:55:03.523Z,20.37
2019-05-07T02:57:34.055Z,19.27
2019-05-07T03:00:08.314Z,19.75
2019-05-07T03:02:39.330Z,19.45
2019-05-07T03:05:13.664Z,21.33
2019-05-07T03:07:53.498Z,19.57
2019-05-07T03:10:25.055Z,17.92
2019-05-07T03:12:56.244Z,18.20
2019-05-07T03:15:27.703Z,18.50
2019-05-07T03:17:59.354Z,19.67
2019-05-07T03:20:43.049Z,18.30
2019-05-07T03:23:16.934Z,18.80
2019-05-07T03:25:49.662Z,17.75
2019-05-07T03:28:24.707Z,18.42
2019-05-07T03:30:58.725Z,17.98
2019-05-07T03:33:36.142Z,19.32
2019-05-07T03:36:07.502Z,17.37
2019-05-07T03:38:53.586Z,17.70
2019-05-07T03:41:25.702Z,17.77
2019-05-07T03:44:03.693Z,18.30
2019-05-07T03:46:33.944Z,18.07
2019-05-07T03:49:06.017Z,17.92
2019-05-07T03:51:37.061Z,18.48
2019-05-07T03:54:08.314Z,17.67
2019-05-07T03:56:43.602Z,18.15
2019-05-07T03:59:48.419Z,17.80
2019-05-07T04:02:23.414Z,17.80
2019-05-07T04:04:53.608Z,19.98
2019-05-07T04:07:33.891Z,17.70
2019-05-07T04:10:10.071Z,19.07
2019-05-07T04:12:39.370Z,17.48
2019-05-07T04:15:13.833Z,18.77
2019-05-07T04:17:53.615Z,16.73
2019-05-07T04:20:24.379Z,17.10
2019-05-07T04:23:00.081Z,17.40
2019-05-07T04:25:34.656Z,18.77
2019-05-07T04:28:07.377Z,17.67
2019-05-07T04:30:40.179Z,16.87
2019-05-07T04:33:13.832Z,18.12
2019-05-07T04:35:46.390Z,18.42
2019-05-07T04:38:17.509Z,17.73
2019-05-07T04:40:48.863Z,17.87
2019-05-07T04:43:29.934Z,17.60
2019-05-07T04:46:03.463Z,18.65
2019-05-07T04:48:43.535Z,17.52
2019-05-07T04:51:12.715Z,16.65
2019-05-07T04:53:44.126Z,15.38
2019-05-07T04:56:15.309Z,16.12
2019-05-07T04:58:56.896Z,15.58
2019-05-07T05:01:29.603Z,14.50
2019-05-07T05:04:21.115Z,16.17
2019-05-07T05:06:36.760Z,16.05
2019-05-07T05:09:08.489Z,15.63
2019-05-07T05:11:40.249Z,16.62
2019-05-07T05:14:13.686Z,16.17
2019-05-07T05:16:46.734Z,15.30
2019-05-07T05:19:19.179Z,16.60
2019-05-07T05:21:52.979Z,18.25
2019-05-07T05:24:25.460Z,18.32
2019-05-07T05:26:56.394Z,17.95
2019-05-07T05:29:32.157Z,17.15
2019-05-07T05:32:02.814Z,19.90
2019-05-07T05:34:35.207Z,16.73
2019-05-07T05:37:06.575Z,18.45
2019-05-07T05:39:38.927Z,18.98
2019-05-07T05:42:13.001Z,17.05
2019-05-07T05:44:45.424Z,18.57
2019-05-07T05:47:16.880Z,17.30
2019-05-07T05:49:49.345Z,18.25
2019-05-07T05:52:22.405Z,17.15
2019-05-07T05:54:57.665Z,15.50
2019-05-07T05:57:32.130Z,17.50
2019-05-07T06:00:04.240Z,18.27
2019-05-07T06:02:36.478Z,17.95
2019-05-07T06:05:09.451Z,17.98
2019-05-07T06:07:52.136Z,17.25
2019-05-07T06:10:38.721Z,17.37
2019-05-07T06:13:12.273Z,17.42
2019-05-07T06:15:43.598Z,17.60
2019-05-07T06:18:21.104Z,17.20
2019-05-07T06:20:52.238Z,16.70
2019-05-07T06:23:24.144Z,17.82
2019-05-07T06:25:59.062Z,16.75
2019-05-07T06:28:32.980Z,16.45
2019-05-07T06:31:06.989Z,16.97
2019-05-07T06:33:39.527Z,18.62
2019-05-07T06:36:13.226Z,16.07
2019-05-07T06:38:45.798Z,17.05
2019-05-07T06:41:24.095Z,16.57
2019-05-07T06:43:56.998Z,16.07
2019-05-07T06:46:35.156Z,15.65
2019-05-07T06:49:06.234Z,15.58
2019-05-07T06:51:38.822Z,14.50
2019-05-07T06:54:15.797Z,13.85
2019-05-07T06:56:52.802Z,15.10
2019-05-07T06:59:25.598Z,15.88
2019-05-07T07:01:59.310Z,14.20
2019-05-07T07:04:33.111Z,14.95
2019-05-07T07:07:05.752Z,14.85
2019-05-07T07:09:38.985Z,15.72
2019-05-07T07:12:17.798Z,14.38
2019-05-07T07:14:49.017Z,15.35
2019-05-07T07:17:22.284Z,14.20
2019-05-07T07:19:55.385Z,14.80
2019-05-07T07:22:33.845Z,15.72
2019-05-07T07:25:06.672Z,15.25
2019-05-07T07:27:37.056Z,14.60
2019-05-07T07:30:12.797Z,14.25
2019-05-07T07:32:47.139Z,15.13
2019-05-07T07:35:22.547Z,14.13
2019-05-07T07:37:53.971Z,13.72
2019-05-07T07:40:28.044Z,13.25
2019-05-07T07:42:59.315Z,15.98
2019-05-07T07:45:34.532Z,13.32
2019-05-07T07:48:05.355Z,12.47
2019-05-07T07:50:37.382Z,13.48
2019-05-07T07:53:08.614Z,13.83
2019-05-07T07:55:42.610Z,15.03
2019-05-07T07:58:14.974Z,14.80
2019-05-07T08:00:48.771Z,14.65
2019-05-07T08:03:22.996Z,13.55
2019-05-07T08:05:55.262Z,12.25
2019-05-07T08:08:28.918Z,11.40
2019-05-07T08:11:02.438Z,11.75
2019-05-07T08:13:33.645Z,11.90
2019-05-07T08:16:05.234Z,11.38
2019-05-07T08:18:36.386Z,11.93
2019-05-07T08:21:08.025Z,11.08
2019-05-07T08:23:42.268Z,12.28
2019-05-07T08:26:13.534Z,12.28
2019-05-07T08:28:44.821Z,11.33
2019-05-07T08:31:17.779Z,11.33
2019-05-07T08:33:53.016Z,10.93
2019-05-07T08:36:24.139Z,12.75
2019-05-07T08:38:56.633Z,12.35
2019-05-07T08:41:29.283Z,13.80
2019-05-07T08:44:11.763Z,12.63
2019-05-07T08:46:37.178Z,14.33
2019-05-07T08:49:11.964Z,13.20
2019-05-07T08:51:42.885Z,13.20
2019-05-07T08:54:15.015Z,13.53
2019-05-07T08:56:46.312Z,14.60
2019-05-07T08:59:17.688Z,14.28
2019-05-07T09:01:52.999Z,13.95
2019-05-07T09:04:24.223Z,14.25
2019-05-07T09:06:55.468Z,13.62
2019-05-07T09:09:27.794Z,14.45
2019-05-07T09:11:59.525Z,13.50
2019-05-07T09:14:32.340Z,13.08
2019-05-07T09:17:03.333Z,13.60
2019-05-07T09:19:47.142Z,13.58
2019-05-07T09:22:12.735Z,13.53
2019-05-07T09:24:43.490Z,15.20
2019-05-07T09:27:15.709Z,14.83
2019-05-07T09:29:48.056Z,13.22
2019-05-07T09:32:22.605Z,13.58
2019-05-07T09:34:53.942Z,12.13
2019-05-07T09:37:28.862Z,11.93
2019-05-07T09:40:02.565Z,11.83
2019-05-07T09:42:33.298Z,11.03
2019-05-07T09:45:05.520Z,12.47
2019-05-07T09:47:41.617Z,12.25
2019-05-07T09:50:12.436Z,13.45
2019-05-07T09:52:43.350Z,11.80
2019-05-07T09:55:17.517Z,12.07
2019-05-07T09:57:48.874Z,13.05
2019-05-07T10:00:22.621Z,12.68
2019-05-07T10:02:56.601Z,12.60
2019-05-07T10:05:32.189Z,13.13
2019-05-07T10:08:03.923Z,13.22
2019-05-07T10:10:35.004Z,13.35
2019-05-07T10:13:13.948Z,13.83
2019-05-07T10:15:45.895Z,13.53
2019-05-07T10:18:19.539Z,13.08
2019-05-07T10:20:52.149Z,13.32
2019-05-07T10:23:23.563Z,13.58
2019-05-07T10:25:55.383Z,13.45
2019-05-07T10:28:27.790Z,13.30
2019-05-07T10:30:58.619Z,13.35
2019-05-07T10:33:31.778Z,13.35
2019-05-07T10:36:03.765Z,13.95
2019-05-07T10:38:34.864Z,13.53
2019-05-07T10:41:06.058Z,14.25
2019-05-07T10:43:37.171Z,13.80
2019-05-07T10:46:09.820Z,13.58
2019-05-07T10:48:42.695Z,14.73
2019-05-07T10:51:13.746Z,14.05
2019-05-07T10:53:44.778Z,14.35
2019-05-07T10:56:15.935Z,13.40
2019-05-07T10:58:46.981Z,13.60
2019-05-07T11:01:22.294Z,14.23
2019-05-07T11:03:52.936Z,14.55
2019-05-07T11:06:24.067Z,14.68
2019-05-07T11:08:55.381Z,15.90
2019-05-07T11:11:26.295Z,19.15
2019-05-07T11:14:01.941Z,23.50
2019-05-07T11:16:35.184Z,20.97
2019-05-07T11:19:06.354Z,21.60
2019-05-07T11:21:37.330Z,22.50
2019-05-07T11:24:08.128Z,22.67
2019-05-07T11:26:39.132Z,22.65
2019-05-07T11:29:10.325Z,20.77
2019-05-07T11:31:42.303Z,21.85
2019-05-07T11:34:14.028Z,21.45
2019-05-07T11:36:45.444Z,20.12
2019-05-07T11:39:17.588Z,20.20
2019-05-07T11:41:51.800Z,18.80
2019-05-07T11:44:23.776Z,18.50
2019-05-07T11:46:57.299Z,18.87
2019-05-07T11:49:29.559Z,20.55
2019-05-07T11:52:01.728Z,18.35
2019-05-07T11:54:35.282Z,19.10
2019-05-07T11:57:06.297Z,18.80
2019-05-07T11:59:37.259Z,20.00
2019-05-07T12:02:08.515Z,20.32
2019-05-07T12:04:39.557Z,20.55
2019-05-07T12:07:11.933Z,20.27
2019-05-07T12:09:43.096Z,23.87
2019-05-07T12:12:14.322Z,25.27
2019-05-07T12:14:45.254Z,24.00
2019-05-07T12:17:16.365Z,22.77
2019-05-07T12:19:47.526Z,23.15
2019-05-07T12:22:20.436Z,21.50
2019-05-07T12:24:52.155Z,20.52
2019-05-07T12:27:24.016Z,22.67
2019-05-07T12:29:54.866Z,20.77
2019-05-07T12:32:25.639Z,20.68
2019-05-07T12:34:58.015Z,20.25
2019-05-07T12:37:32.011Z,18.23
2019-05-07T12:40:04.679Z,18.90
2019-05-07T12:42:35.839Z,17.98
2019-05-07T12:45:08.576Z,18.02
2019-05-07T12:47:39.707Z,17.32
2019-05-07T12:50:11.317Z,17.35
2019-05-07T12:52:46.278Z,16.97
2019-05-07T12:55:20.082Z,15.65
2019-05-07T12:57:51.919Z,17.45
2019-05-07T13:00:25.390Z,18.15
2019-05-07T13:02:58.125Z,17.82
2019-05-07T13:05:31.340Z,18.32
2019-05-07T13:08:03.260Z,18.00
2019-05-07T13:10:34.255Z,17.60
2019-05-07T13:13:05.539Z,15.90
2019-05-07T13:15:36.831Z,15.93
2019-05-07T13:18:08.017Z,16.02
2019-05-07T13:20:39.511Z,16.50
2019-05-07T13:23:11.999Z,15.58
2019-05-07T13:25:44.283Z,17.23
2019-05-07T13:28:14.837Z,16.40
2019-05-07T13:30:45.887Z,16.67
2019-05-07T13:33:18.743Z,16.48
2019-05-07T13:35:52.249Z,16.40
2019-05-07T13:38:24.306Z,16.52
2019-05-07T13:40:56.889Z,16.95
2019-05-07T13:43:29.611Z,16.48
2019-05-07T13:46:02.522Z,17.75
2019-05-07T13:48:33.632Z,16.90
2019-05-07T13:51:04.997Z,16.50
2019-05-07T13:53:36.008Z,18.25
2019-05-07T13:56:07.402Z,16.80
2019-05-07T13:58:40.337Z,16.93
2019-05-07T14:01:16.061Z,16.52
2019-05-07T14:03:46.955Z,17.02
2019-05-07T14:06:21.651Z,17.17
2019-05-07T14:08:52.603Z,18.85
2019-05-07T14:11:23.814Z,19.98
2019-05-07T14:13:54.779Z,19.42
2019-05-07T14:16:25.850Z,19.23
2019-05-07T14:18:56.618Z,19.52
2019-05-07T14:21:27.463Z,20.12
2019-05-07T14:23:58.520Z,20.82
2019-05-07T14:26:29.819Z,21.65
2019-05-07T14:29:01.913Z,21.55
2019-05-07T14:31:33.746Z,21.20
2019-05-07T14:34:06.106Z,24.23
2019-05-07T14:36:38.686Z,29.50
2019-05-07T14:39:10.503Z,26.75
2019-05-07T14:41:42.734Z,24.35
2019-05-07T14:44:15.841Z,23.57
2019-05-07T14:46:51.567Z,22.60
2019-05-07T14:49:22.524Z,23.42
2019-05-07T14:51:54.121Z,24.02
2019-05-07T14:54:25.400Z,22.17
2019-05-07T14:56:56.688Z,23.67
2019-05-07T14:59:27.601Z,24.80
2019-05-07T15:01:58.715Z,22.50
2019-05-07T15:04:29.882Z,23.18
2019-05-07T15:07:02.530Z,24.20
2019-05-07T15:09:33.738Z,21.97
2019-05-07T15:12:04.996Z,23.42
2019-05-07T15:14:35.881Z,23.85
2019-05-07T15:17:07.993Z,25.65
2019-05-07T15:19:39.314Z,24.23
2019-05-07T15:22:12.668Z,25.12
2019-05-07T15:24:47.198Z,28.90
2019-05-07T15:27:18.212Z,25.65
2019-05-07T15:29:49.272Z,24.63
2019-05-07T15:32:21.692Z,25.12
2019-05-07T15:34:52.785Z,26.60
2019-05-07T15:37:44.288Z,25.52
2019-05-07T15:40:16.566Z,25.45
2019-05-07T15:42:47.554Z,26.17
2019-05-07T15:45:18.568Z,26.35
2019-05-07T15:47:51.350Z,26.40
2019-05-07T15:50:23.657Z,26.20
2019-05-07T15:52:58.481Z,26.97
2019-05-07T15:55:28.401Z,26.05
2019-05-07T15:57:59.628Z,25.17
2019-05-07T16:00:33.536Z,25.32
2019-05-07T16:03:06.209Z,25.85
2019-05-07T16:05:37.290Z,26.17
2019-05-07T16:08:12.147Z,25.05
2019-05-07T16:10:42.739Z,25.35
2019-05-07T16:13:15.217Z,25.12
2019-05-07T16:15:46.180Z,25.10
2019-05-07T16:18:18.565Z,24.82
2019-05-07T16:20:49.479Z,25.30
2019-05-07T16:23:22.007Z,25.77
2019-05-07T16:25:52.919Z,25.80
2019-05-07T16:28:24.233Z,24.87
2019-05-07T16:30:55.444Z,25.92
2019-05-07T16:33:26.518Z,25.62
2019-05-07T16:35:57.635Z,25.97
2019-05-07T16:38:28.588Z,26.33
2019-05-07T16:40:59.794Z,25.75
2019-05-07T16:43:30.633Z,26.27
2019-05-07T16:46:02.424Z,26.10
2019-05-07T16:48:33.644Z,26.93
2019-05-07T16:51:04.594Z,27.30
2019-05-07T16:53:35.514Z,26.93
2019-05-07T16:56:06.534Z,26.52
2019-05-07T16:58:37.436Z,26.60
2019-05-07T17:01:09.949Z,26.52
2019-05-07T17:03:42.685Z,31.37
2019-05-07T17:06:13.961Z,30.82
2019-05-07T17:08:46.845Z,29.85
2019-05-07T17:11:17.951Z,27.87
2019-05-07T17:13:49.024Z,28.23
2019-05-07T17:16:20.029Z,28.57
2019-05-07T17:18:51.913Z,27.85
2019-05-07T17:21:24.190Z,28.77
2019-05-07T17:23:55.021Z,29.02
2019-05-07T17:26:26.095Z,28.80
2019-05-07T17:28:57.154Z,29.63
2019-05-07T17:31:29.329Z,29.72
2019-05-07T17:34:02.108Z,29.32
2019-05-07T17:36:33.121Z,28.77
2019-05-07T17:39:05.243Z,28.62
2019-05-07T17:41:37.391Z,29.98
2019-05-07T17:44:08.807Z,30.02
2019-05-07T17:46:39.705Z,30.70
2019-05-07T17:49:11.979Z,29.92
2019-05-07T17:51:44.465Z,30.08
2019-05-07T17:54:16.230Z,29.00
2019-05-07T17:56:47.390Z,31.30
2019-05-07T17:59:18.640Z,28.83
2019-05-07T18:01:52.897Z,31.95
2019-05-07T18:04:23.192Z,30.32
2019-05-07T18:06:54.461Z,30.80
2019-05-07T18:09:28.019Z,30.27
2019-05-07T18:11:59.227Z,29.70
2019-05-07T18:14:32.168Z,30.02
2019-05-07T18:17:04.597Z,30.48
2019-05-07T18:19:35.737Z,30.77
2019-05-07T18:22:06.915Z,32.90
2019-05-07T18:24:38.081Z,33.08
2019-05-07T18:27:12.587Z,31.57
2019-05-07T18:29:44.025Z,35.40
2019-05-07T18:32:15.209Z,30.25
2019-05-07T18:34:46.037Z,30.95
2019-05-07T18:37:19.467Z,33.08
2019-05-07T18:39:58.718Z,33.88
2019-05-07T18:42:30.059Z,33.18
2019-05-07T18:45:02.105Z,31.95
2019-05-07T18:47:33.261Z,29.57
2019-05-07T18:50:05.695Z,31.95
2019-05-07T18:52:36.716Z,31.40
2019-05-07T18:55:11.870Z,32.55
2019-05-07T18:57:42.525Z,32.45
2019-05-07T19:00:17.358Z,32.13
2019-05-07T19:02:48.416Z,31.75
2019-05-07T19:05:19.576Z,32.10
2019-05-07T19:08:03.829Z,32.50
2019-05-07T19:10:23.171Z,31.17
2019-05-07T19:12:55.025Z,31.27
2019-05-07T19:15:25.851Z,32.13
2019-05-07T19:17:56.891Z,31.62
2019-05-07T19:20:28.255Z,29.60
2019-05-07T19:22:59.308Z,31.10
2019-05-07T19:25:32.505Z,32.05
2019-05-07T19:28:02.816Z,30.72
2019-05-07T19:30:33.884Z,32.45
2019-05-07T19:33:05.642Z,29.18
2019-05-07T19:35:36.640Z,29.57
2019-05-07T19:38:07.655Z,30.15
2019-05-07T19:40:38.677Z,30.62
2019-05-07T19:43:09.362Z,31.62
2019-05-07T19:45:41.867Z,29.32
2019-05-07T19:48:13.264Z,30.82
2019-05-07T19:50:44.261Z,30.17
2019-05-07T19:53:20.461Z,29.15
2019-05-07T19:55:52.600Z,30.75
2019-05-07T19:58:24.503Z,30.02
2019-05-07T20:00:57.305Z,30.75
2019-05-07T20:03:28.328Z,31.15
2019-05-07T20:06:02.700Z,32.30
2019-05-07T20:08:33.760Z,33.42
2019-05-07T20:11:05.916Z,30.08
2019-05-07T20:13:36.969Z,32.75
2019-05-07T20:16:09.336Z,30.20
2019-05-07T20:18:42.845Z,30.82
2019-05-07T20:21:13.592Z,29.72
2019-05-07T20:23:44.633Z,32.28
2019-05-07T20:26:15.679Z,30.32
2019-05-07T20:28:46.564Z,30.43
2019-05-07T20:31:17.606Z,32.08
2019-05-07T20:33:48.591Z,30.02
2019-05-07T20:36:19.705Z,29.70
2019-05-07T20:38:52.199Z,29.95
2019-05-07T20:41:23.601Z,31.77
2019-05-07T20:43:54.494Z,32.53
2019-05-07T20:46:25.690Z,31.52
2019-05-07T20:48:56.771Z,29.90
2019-05-07T20:51:27.806Z,32.60
2019-05-07T20:53:58.755Z,31.02
2019-05-07T20:56:32.231Z,32.83
2019-05-07T20:59:03.508Z,30.08
2019-05-07T21:01:36.033Z,29.57
2019-05-07T21:04:07.274Z,29.32
2019-05-07T21:06:38.191Z,29.35
2019-05-07T21:09:12.418Z,30.10
2019-05-07T21:11:43.167Z,28.60
2019-05-07T21:14:14.411Z,28.10
2019-05-07T21:16:45.177Z,28.85
2019-05-07T21:19:16.516Z,27.85
2019-05-07T21:21:47.634Z,27.50
2019-05-07T21:24:18.673Z,28.12
2019-05-07T21:26:49.654Z,28.12
2019-05-07T21:29:20.704Z,29.05
2019-05-07T21:31:52.407Z,28.17
2019-05-07T21:34:23.650Z,28.57
2019-05-07T21:36:54.900Z,27.52
2019-05-07T21:39:25.919Z,29.02
2019-05-07T21:41:57.220Z,26.85
2019-05-07T21:44:28.174Z,27.30
2019-05-07T21:46:59.327Z,26.33
2019-05-07T21:49:32.162Z,26.45
2019-05-07T21:52:02.909Z,25.02
2019-05-07T21:54:35.530Z,28.15
2019-05-07T21:57:08.008Z,27.15
2019-05-07T21:59:40.628Z,27.20
2019-05-07T22:02:13.276Z,25.97
2019-05-07T22:04:44.152Z,27.87
2019-05-07T22:07:15.498Z,26.68
2019-05-07T22:09:46.529Z,26.30
2019-05-07T22:12:17.622Z,25.95
2019-05-07T22:14:48.505Z,27.22
2019-05-07T22:17:21.802Z,26.05
2019-05-07T22:19:52.466Z,26.02
2019-05-07T22:22:24.294Z,25.65
2019-05-07T22:24:55.490Z,25.37
2019-05-07T22:27:26.750Z,26.48
2019-05-07T22:29:58.592Z,26.35
2019-05-07T22:32:31.035Z,26.60
2019-05-07T22:35:03.817Z,25.43
2019-05-07T22:37:35.156Z,27.52
2019-05-07T22:40:08.244Z,25.60
2019-05-07T22:42:39.227Z,26.65
2019-05-07T22:45:12.186Z,25.02
2019-05-07T22:47:42.946Z,27.10
2019-05-07T22:50:14.526Z,26.25
2019-05-07T22:52:45.292Z,25.57
2019-05-07T22:55:17.520Z,26.05
2019-05-07T22:57:49.558Z,26.68
2019-05-07T23:00:22.657Z,25.10
2019-05-07T23:02:54.030Z,24.50
2019-05-07T23:05:27.784Z,24.15
2019-05-07T23:07:58.633Z,24.05
2019-05-07T23:10:29.673Z,24.07
2019-05-07T23:13:02.282Z,24.27
2019-05-07T23:15:33.404Z,23.32
2019-05-07T23:18:04.563Z,22.95
2019-05-07T23:20:35.901Z,22.55
2019-05-07T23:23:06.736Z,21.00
2019-05-07T23:25:37.928Z,21.85
2019-05-07T23:28:09.141Z,21.52
2019-05-07T23:30:42.122Z,22.05
2019-05-07T23:33:16.712Z,19.50
2019-05-07T23:35:47.958Z,20.75
2019-05-07T23:38:22.565Z,21.02
2019-05-07T23:40:59.009Z,21.52
2019-05-07T23:43:31.637Z,21.12
2019-05-07T23:46:08.324Z,21.12
2019-05-07T23:48:39.155Z,19.12
2019-05-07T23:51:10.074Z,19.98
2019-05-07T23:53:44.137Z,19.17
2019-05-07T23:56:15.078Z,18.73
2019-05-07T23:58:46.073Z,20.30
